createdAt,value
2018-05-26T00:00:37.842Z,84.65
2018-05-26T00:03:09.012Z,81.07
2018-05-26T00:05:40.229Z,82.80
2018-05-26T00:08:11.421Z,89.65
2018-05-26T00:10:42.490Z,84.72
2018-05-26T00:13:13.688Z,89.53
2018-05-26T00:15:44.827Z,87.00
2018-05-26T00:18:15.994Z,84.25
2018-05-26T00:20:47.216Z,86.37
2018-05-26T00:23:18.339Z,89.47
2018-05-26T00:25:49.561Z,81.85
2018-05-26T00:28:20.802Z,84.37
2018-05-26T00:30:51.903Z,80.18
2018-05-26T00:33:23.051Z,81.90
2018-05-26T00:35:54.235Z,85.65
2018-05-26T00:38:25.354Z,80.95
2018-05-26T00:40:56.556Z,77.60
2018-05-26T00:43:27.817Z,80.43
2018-05-26T00:45:58.967Z,86.70
2018-05-26T00:48:30.258Z,84.90
2018-05-26T00:51:01.488Z,85.25
2018-05-26T00:53:32.779Z,82.57
2018-05-26T00:56:04.285Z,89.68
2018-05-26T00:58:35.503Z,90.70
2018-05-26T01:01:06.725Z,87.78
2018-05-26T01:03:38.012Z,85.80
2018-05-26T01:06:09.085Z,83.40
2018-05-26T01:08:40.837Z,81.68
2018-05-26T01:11:11.994Z,83.40
2018-05-26T01:13:43.115Z,81.72
2018-05-26T01:16:14.257Z,80.12
2018-05-26T01:18:45.317Z,81.68
2018-05-26T01:21:16.452Z,83.85
2018-05-26T01:23:47.581Z,88.85
2018-05-26T01:26:18.838Z,88.10
2018-05-26T01:28:49.963Z,80.78
2018-05-26T01:31:21.097Z,79.80
2018-05-26T01:33:52.270Z,88.47
2018-05-26T01:36:23.416Z,80.97
2018-05-26T01:38:54.602Z,83.60
2018-05-26T01:41:25.986Z,85.22
2018-05-26T01:43:57.023Z,79.85
2018-05-26T01:46:28.127Z,76.07
2018-05-26T01:48:59.286Z,81.10
2018-05-26T01:51:30.439Z,79.87
2018-05-26T01:54:01.632Z,81.30
2018-05-26T01:56:32.764Z,87.72
2018-05-26T01:59:16.517Z,88.78
2018-05-26T02:01:47.899Z,85.25
2018-05-26T02:04:19.038Z,83.43
2018-05-26T02:06:50.061Z,87.37
2018-05-26T02:09:21.525Z,88.70
2018-05-26T02:11:52.564Z,87.45
2018-05-26T02:14:23.681Z,86.65
2018-05-26T02:16:54.809Z,85.22
2018-05-26T02:19:25.970Z,85.00
2018-05-26T02:21:57.033Z,82.18
2018-05-26T02:24:28.109Z,82.20
2018-05-26T02:26:59.161Z,81.25
2018-05-26T02:29:30.296Z,79.78
2018-05-26T02:32:01.495Z,78.60
2018-05-26T02:34:32.661Z,81.35
2018-05-26T02:37:03.826Z,82.62
2018-05-26T02:39:35.038Z,79.85
2018-05-26T02:42:06.315Z,84.55
2018-05-26T02:44:37.429Z,85.30
2018-05-26T02:47:08.577Z,84.25
2018-05-26T02:49:40.356Z,77.05
2018-05-26T02:52:11.470Z,80.65
2018-05-26T02:54:42.753Z,80.60
2018-05-26T02:57:13.838Z,84.53
2018-05-26T02:59:45.182Z,104.90
2018-05-26T03:02:16.216Z,108.15
2018-05-26T03:04:52.455Z,106.35
2018-05-26T03:07:28.426Z,84.30
2018-05-26T03:10:05.095Z,86.40
2018-05-26T03:12:41.088Z,80.07
2018-05-26T03:15:11.388Z,83.60
2018-05-26T03:17:42.694Z,78.53
2018-05-26T03:20:13.850Z,79.32
2018-05-26T03:22:45.083Z,79.90
2018-05-26T03:25:16.331Z,80.97
2018-05-26T03:27:47.369Z,82.57
2018-05-26T03:30:18.582Z,83.20
2018-05-26T03:32:49.783Z,81.53
2018-05-26T03:35:21.058Z,79.45
2018-05-26T03:37:52.116Z,80.03
2018-05-26T03:40:23.349Z,82.25
2018-05-26T03:42:54.382Z,87.10
2018-05-26T03:45:25.501Z,84.70
2018-05-26T03:47:56.640Z,85.20
2018-05-26T03:50:27.754Z,83.43
2018-05-26T03:52:59.131Z,80.43
2018-05-26T03:59:47.017Z,85.20
2018-05-26T04:02:18.266Z,84.50
2018-05-26T04:04:49.345Z,85.62
2018-05-26T04:07:20.331Z,85.50
2018-05-26T04:09:51.462Z,75.57
2018-05-26T04:12:22.558Z,79.97
2018-05-26T04:14:53.648Z,81.70
2018-05-26T04:17:24.647Z,80.07
2018-05-26T04:19:55.744Z,81.32
2018-05-26T04:22:26.806Z,80.50
2018-05-26T04:24:58.101Z,80.80
2018-05-26T04:27:29.122Z,78.50
2018-05-26T04:30:00.501Z,81.63
2018-05-26T04:32:31.770Z,82.28
2018-05-26T04:35:02.973Z,75.18
2018-05-26T04:37:34.206Z,69.60
2018-05-26T04:40:05.293Z,73.53
2018-05-26T04:42:36.299Z,75.18
2018-05-26T04:45:07.366Z,78.55
2018-05-26T04:47:38.639Z,75.50
2018-05-26T04:50:09.693Z,76.07
2018-05-26T04:52:40.776Z,75.55
2018-05-26T04:55:11.856Z,75.78
2018-05-26T04:57:42.985Z,81.70
2018-05-26T05:00:14.068Z,82.12
2018-05-26T05:02:45.313Z,80.43
2018-05-26T05:05:16.350Z,79.90
2018-05-26T05:07:47.472Z,79.22
2018-05-26T05:10:18.648Z,83.35
2018-05-26T05:12:49.655Z,87.82
2018-05-26T05:15:20.760Z,85.57
2018-05-26T05:17:51.853Z,89.03
2018-05-26T05:20:23.122Z,90.18
2018-05-26T05:22:54.211Z,86.18
2018-05-26T05:25:25.400Z,88.65
2018-05-26T05:27:56.633Z,91.30
2018-05-26T05:30:27.979Z,87.88
2018-05-26T05:32:58.947Z,88.80
2018-05-26T05:35:30.448Z,89.03
2018-05-26T05:38:01.581Z,89.37
2018-05-26T05:40:33.257Z,85.78
2018-05-26T05:43:04.484Z,85.25
2018-05-26T05:45:35.526Z,88.30
2018-05-26T05:48:06.707Z,91.25
2018-05-26T05:50:37.786Z,97.68
2018-05-26T05:53:09.057Z,88.95
2018-05-26T05:55:41.672Z,93.53
2018-05-26T05:58:12.819Z,97.45
2018-05-26T06:00:44.053Z,93.40
2018-05-26T06:03:15.263Z,98.07
2018-05-26T06:05:46.398Z,93.53
2018-05-26T06:08:17.492Z,88.18
2018-05-26T06:10:48.525Z,90.05
2018-05-26T06:13:19.529Z,85.68
2018-05-26T06:15:50.574Z,87.72
2018-05-26T06:18:21.617Z,88.80
2018-05-26T06:20:53.925Z,91.85
2018-05-26T06:23:24.990Z,96.93
2018-05-26T06:25:56.744Z,93.60
2018-05-26T06:28:28.072Z,93.60
2018-05-26T06:30:59.513Z,89.72
2018-05-26T06:33:30.620Z,93.28
2018-05-26T06:36:01.903Z,104.95
2018-05-26T06:38:33.242Z,95.70
2018-05-26T06:41:04.390Z,98.20
2018-05-26T06:43:35.758Z,101.22
2018-05-26T06:46:06.735Z,97.68
2018-05-26T06:48:38.677Z,97.90
2018-05-26T06:51:09.962Z,95.32
2018-05-26T06:53:41.312Z,94.10
2018-05-26T06:56:12.863Z,92.32
2018-05-26T06:58:46.298Z,86.00
2018-05-26T07:01:17.938Z,92.00
2018-05-26T07:03:49.345Z,90.18
2018-05-26T07:06:20.652Z,95.78
2018-05-26T07:08:52.871Z,94.55
2018-05-26T07:11:24.323Z,102.00
2018-05-26T07:13:55.536Z,101.57
2018-05-26T07:16:29.038Z,89.25
2018-05-26T07:19:00.833Z,92.35
2018-05-26T07:21:32.043Z,93.82
2018-05-26T07:24:03.175Z,88.57
2018-05-26T07:26:34.350Z,94.15
2018-05-26T07:29:05.646Z,111.30
2018-05-26T07:31:36.866Z,96.32
2018-05-26T07:34:08.552Z,98.20
2018-05-26T07:36:40.577Z,100.72
2018-05-26T07:39:13.254Z,95.12
2018-05-26T07:41:45.031Z,95.05
2018-05-26T07:44:16.423Z,97.07
2018-05-26T07:46:47.834Z,88.72
2018-05-26T07:49:19.738Z,91.53
2018-05-26T07:51:51.055Z,94.65
2018-05-26T07:54:22.746Z,88.65
2018-05-26T07:56:54.531Z,91.07
2018-05-26T07:59:25.997Z,95.47
2018-05-26T08:01:57.506Z,88.35
2018-05-26T08:04:29.068Z,95.07
2018-05-26T08:07:00.469Z,90.70
2018-05-26T08:09:31.963Z,85.35
2018-05-26T08:12:03.535Z,92.03
2018-05-26T08:14:34.996Z,90.50
2018-05-26T08:17:06.654Z,94.60
2018-05-26T08:19:37.999Z,94.65
2018-05-26T08:22:09.612Z,96.57
2018-05-26T08:24:41.220Z,94.62
2018-05-26T08:27:12.737Z,89.90
2018-05-26T08:29:44.232Z,90.00
2018-05-26T08:32:15.752Z,97.82
2018-05-26T08:34:47.008Z,90.90
2018-05-26T08:37:18.468Z,97.62
2018-05-26T08:39:49.914Z,85.85
2018-05-26T08:42:21.226Z,92.37
2018-05-26T08:44:52.530Z,90.30
2018-05-26T08:47:23.781Z,94.40
2018-05-26T08:49:55.206Z,95.22
2018-05-26T08:52:26.521Z,96.28
2018-05-26T08:54:57.797Z,92.75
2018-05-26T08:57:29.063Z,96.43
2018-05-26T09:00:00.251Z,94.75
2018-05-26T09:02:31.627Z,97.12
2018-05-26T09:05:02.979Z,86.82
2018-05-26T09:07:34.227Z,89.82
2018-05-26T09:10:05.584Z,90.38
2018-05-26T09:12:36.862Z,91.95
2018-05-26T09:15:08.227Z,97.53
2018-05-26T09:17:39.855Z,89.30
2018-05-26T09:20:11.665Z,86.53
2018-05-26T09:22:42.981Z,87.37
2018-05-26T09:25:14.567Z,92.62
2018-05-26T09:27:45.745Z,95.55
2018-05-26T09:30:17.059Z,95.43
2018-05-26T09:32:48.273Z,93.32
2018-05-26T09:35:19.304Z,91.90
2018-05-26T09:37:50.635Z,98.40
2018-05-26T09:40:22.538Z,91.97
2018-05-26T09:42:53.849Z,93.28
2018-05-26T09:45:25.045Z,88.50
2018-05-26T09:47:56.482Z,96.65
2018-05-26T09:50:27.764Z,93.82
2018-05-26T09:52:58.877Z,91.72
2018-05-26T09:55:30.312Z,99.10
2018-05-26T09:58:01.930Z,101.85
2018-05-26T10:00:33.341Z,91.63
2018-05-26T10:03:04.782Z,98.68
2018-05-26T10:05:35.923Z,98.80
2018-05-26T10:08:07.061Z,98.18
2018-05-26T10:10:38.150Z,95.72
2018-05-26T10:13:09.350Z,100.30
2018-05-26T10:15:40.547Z,105.47
2018-05-26T10:18:11.838Z,90.35
2018-05-26T10:20:43.222Z,91.12
2018-05-26T10:23:15.822Z,90.62
2018-05-26T10:25:47.283Z,92.37
2018-05-26T10:28:18.559Z,90.03
2018-05-26T10:30:49.808Z,92.12
2018-05-26T10:33:20.787Z,95.60
2018-05-26T10:35:52.062Z,95.78
2018-05-26T10:38:23.142Z,95.10
2018-05-26T10:40:54.327Z,103.38
2018-05-26T10:43:25.797Z,103.40
2018-05-26T10:46:05.670Z,96.05
2018-05-26T10:48:36.819Z,103.87
2018-05-26T10:51:08.058Z,93.95
2018-05-26T10:53:38.990Z,94.55
2018-05-26T10:56:10.706Z,96.30
2018-05-26T10:58:41.831Z,92.50
2018-05-26T11:01:13.104Z,95.57
2018-05-26T11:03:44.346Z,97.28
2018-05-26T11:06:15.364Z,95.65
2018-05-26T11:08:46.531Z,95.00
2018-05-26T11:11:17.639Z,93.18
2018-05-26T11:13:48.819Z,95.30
2018-05-26T11:16:19.869Z,99.97
2018-05-26T11:18:53.220Z,100.60
2018-05-26T11:21:26.241Z,105.18
2018-05-26T11:23:57.556Z,100.00
2018-05-26T11:26:28.887Z,105.28
2018-05-26T11:29:00.070Z,103.25
2018-05-26T11:31:32.909Z,98.43
2018-05-26T11:34:04.451Z,94.10
2018-05-26T11:36:35.598Z,96.47
2018-05-26T11:39:07.318Z,97.90
2018-05-26T11:41:38.325Z,95.90
2018-05-26T11:44:09.914Z,94.28
2018-05-26T11:46:40.963Z,99.15
2018-05-26T11:49:12.088Z,99.50
2018-05-26T11:51:43.145Z,104.30
2018-05-26T11:54:14.363Z,107.93
2018-05-26T11:56:45.564Z,97.15
2018-05-26T11:59:17.697Z,97.90
2018-05-26T12:01:48.933Z,98.22
2018-05-26T12:04:19.918Z,91.05
2018-05-26T12:06:51.066Z,101.93
2018-05-26T12:09:22.269Z,101.22
2018-05-26T12:11:53.384Z,101.18
2018-05-26T12:14:24.645Z,107.15
2018-05-26T12:16:55.740Z,99.18
2018-05-26T12:19:26.789Z,100.03
2018-05-26T12:21:58.343Z,97.40
2018-05-26T12:24:29.280Z,101.75
2018-05-26T12:27:00.476Z,94.57
2018-05-26T12:29:31.642Z,97.03
2018-05-26T12:32:03.088Z,96.93
2018-05-26T12:34:34.255Z,94.45
2018-05-26T12:37:05.455Z,95.80
2018-05-26T12:39:37.093Z,87.50
2018-05-26T12:42:08.369Z,88.60
2018-05-26T12:44:39.527Z,84.10
2018-05-26T12:47:10.585Z,90.97
2018-05-26T12:49:41.861Z,97.53
2018-05-26T12:52:13.049Z,91.22
2018-05-26T12:54:44.191Z,87.60
2018-05-26T12:57:16.138Z,89.25
2018-05-26T12:59:47.428Z,91.12
2018-05-26T13:02:18.573Z,92.30
2018-05-26T13:04:49.685Z,90.03
2018-05-26T13:07:20.774Z,94.15
2018-05-26T13:09:52.107Z,91.20
2018-05-26T13:12:23.218Z,90.05
2018-05-26T13:14:55.033Z,92.62
2018-05-26T13:17:26.207Z,97.03
2018-05-26T13:19:57.280Z,103.53
2018-05-26T13:22:28.394Z,101.32
2018-05-26T13:24:59.395Z,96.20
2018-05-26T13:27:30.625Z,90.82
2018-05-26T13:30:02.307Z,97.93
2018-05-26T13:32:33.584Z,97.40
2018-05-26T13:35:05.502Z,99.50
2018-05-26T13:37:36.739Z,98.68
2018-05-26T13:40:07.813Z,97.03
2018-05-26T13:42:39.590Z,100.90
2018-05-26T13:45:11.169Z,100.15
2018-05-26T13:47:43.427Z,103.20
2018-05-26T13:50:16.164Z,99.45
2018-05-26T13:52:47.600Z,95.75
2018-05-26T13:55:20.782Z,100.53
2018-05-26T13:57:51.952Z,107.43
2018-05-26T14:00:24.214Z,98.72
2018-05-26T14:02:55.277Z,93.68
2018-05-26T14:05:26.455Z,103.60
2018-05-26T14:07:57.553Z,101.55
2018-05-26T14:10:28.663Z,98.87
2018-05-26T14:13:00.147Z,101.12
2018-05-26T14:15:31.246Z,105.82
2018-05-26T14:18:02.586Z,100.60
2018-05-26T14:20:33.742Z,104.00
2018-05-26T14:23:05.308Z,95.07
2018-05-26T14:25:36.337Z,92.50
2018-05-26T14:28:07.514Z,98.00
2018-05-26T14:30:38.518Z,99.43
2018-05-26T14:33:09.709Z,99.53
2018-05-26T14:35:40.689Z,99.28
2018-05-26T14:38:11.962Z,101.25
2018-05-26T14:40:43.233Z,96.85
2018-05-26T14:43:14.687Z,100.75
2018-05-26T14:45:45.802Z,103.15
2018-05-26T14:48:17.134Z,96.50
2018-05-26T14:50:48.370Z,104.18
2018-05-26T14:53:19.570Z,99.90
2018-05-26T14:55:50.846Z,101.28
2018-05-26T14:58:22.336Z,101.47
2018-05-26T15:00:53.517Z,104.07
2018-05-26T15:03:25.192Z,100.32
2018-05-26T15:05:58.428Z,96.55
2018-05-26T15:08:32.722Z,100.80
2018-05-26T15:11:05.741Z,102.35
2018-05-26T15:13:36.735Z,95.25
2018-05-26T15:16:08.125Z,97.90
2018-05-26T15:18:40.080Z,87.22
2018-05-26T15:21:13.886Z,92.97
2018-05-26T15:23:46.267Z,94.55
2018-05-26T15:26:17.557Z,88.95
2018-05-26T15:28:48.509Z,90.53
2018-05-26T15:31:19.647Z,95.70
2018-05-26T15:33:50.673Z,94.95
2018-05-26T15:36:21.985Z,93.05
2018-05-26T15:38:52.986Z,103.95
2018-05-26T15:41:24.298Z,97.28
2018-05-26T15:43:55.614Z,96.40
2018-05-26T15:46:27.024Z,96.12
2018-05-26T15:48:58.303Z,98.05
2018-05-26T15:51:35.373Z,101.12
2018-05-26T15:54:09.215Z,94.20
2018-05-26T15:56:40.349Z,94.20
2018-05-26T15:59:11.829Z,94.07
2018-05-26T16:01:44.275Z,94.15
2018-05-26T16:04:16.366Z,98.35
2018-05-26T16:06:48.667Z,91.55
2018-05-26T16:09:20.166Z,97.90
2018-05-26T16:11:51.137Z,91.53
2018-05-26T16:14:22.309Z,96.53
2018-05-26T16:16:53.710Z,100.72
2018-05-26T16:19:26.365Z,99.00
2018-05-26T16:21:57.950Z,98.20
2018-05-26T16:24:30.112Z,100.82
2018-05-26T16:27:02.233Z,95.45
2018-05-26T16:29:33.836Z,102.03
2018-05-26T16:32:05.159Z,98.43
2018-05-26T16:34:36.713Z,96.07
2018-05-26T16:37:08.565Z,98.20
2018-05-26T16:39:40.111Z,100.95
2018-05-26T16:42:11.341Z,96.50
2018-05-26T16:44:42.921Z,97.78
2018-05-26T16:47:14.835Z,106.70
2018-05-26T16:49:46.177Z,103.20
2018-05-26T16:52:18.229Z,98.82
2018-05-26T16:54:49.765Z,99.40
2018-05-26T16:57:22.018Z,99.47
2018-05-26T16:59:53.381Z,100.07
2018-05-26T17:02:25.479Z,102.82
2018-05-26T17:04:56.905Z,100.95
2018-05-26T17:07:28.225Z,95.57
2018-05-26T17:09:59.589Z,93.20
2018-05-26T17:12:31.238Z,96.90
2018-05-26T17:15:03.091Z,96.47
2018-05-26T17:17:34.283Z,98.60
2018-05-26T17:20:06.165Z,108.25
2018-05-26T17:22:37.824Z,105.47
2018-05-26T17:25:08.949Z,104.30
2018-05-26T17:27:40.515Z,102.87
2018-05-26T17:30:12.436Z,101.40
2018-05-26T17:32:43.894Z,102.03
2018-05-26T17:35:15.446Z,97.72
2018-05-26T17:37:47.702Z,111.88
2018-05-26T17:40:19.776Z,106.93
2018-05-26T17:42:51.279Z,107.68
2018-05-26T17:45:23.171Z,104.22
2018-05-26T17:47:54.783Z,109.43
2018-05-26T17:50:26.449Z,103.80
2018-05-26T17:52:58.474Z,153.45
2018-05-26T17:55:30.769Z,103.75
2018-05-26T17:58:02.363Z,105.75
2018-05-26T18:00:35.067Z,100.62
2018-05-26T18:03:07.632Z,105.47
2018-05-26T18:05:38.837Z,97.72
2018-05-26T18:08:10.059Z,97.25
2018-05-26T18:10:42.297Z,103.07
2018-05-26T18:13:13.421Z,99.25
2018-05-26T18:15:44.798Z,111.60
2018-05-26T18:18:16.005Z,106.30
2018-05-26T18:20:47.418Z,105.47
2018-05-26T18:23:19.774Z,110.25
2018-05-26T18:25:52.818Z,111.55
2018-05-26T18:28:26.504Z,117.60
2018-05-26T18:30:58.777Z,112.80
2018-05-26T18:33:30.061Z,102.05
2018-05-26T18:36:01.163Z,105.43
2018-05-26T18:38:32.300Z,104.70
2018-05-26T18:41:03.648Z,98.95
2018-05-26T18:43:35.051Z,97.25
2018-05-26T18:46:06.483Z,103.25
2018-05-26T18:48:38.079Z,103.57
2018-05-26T18:51:09.837Z,97.35
2018-05-26T18:53:41.112Z,102.25
2018-05-26T18:56:12.812Z,99.45
2018-05-26T18:58:44.143Z,113.70
2018-05-26T19:01:16.336Z,113.72
2018-05-26T19:03:49.006Z,101.20
2018-05-26T19:06:20.354Z,99.22
2018-05-26T19:08:52.034Z,103.70
2018-05-26T19:11:23.438Z,105.57
2018-05-26T19:13:55.103Z,97.95
2018-05-26T19:16:26.259Z,101.65
2018-05-26T19:18:57.525Z,94.45
2018-05-26T19:21:29.047Z,102.45
2018-05-26T19:24:00.333Z,98.85
2018-05-26T19:26:31.858Z,98.35
2018-05-26T19:29:03.010Z,96.47
2018-05-26T19:31:34.660Z,93.85
2018-05-26T19:34:05.719Z,104.90
2018-05-26T19:36:36.837Z,100.65
2018-05-26T19:39:07.964Z,105.57
2018-05-26T19:41:39.181Z,125.60
2018-05-26T19:44:10.458Z,134.45
2018-05-26T19:46:41.504Z,109.12
2018-05-26T19:49:12.745Z,103.18
2018-05-26T19:51:43.956Z,108.05
2018-05-26T19:54:15.584Z,115.30
2018-05-26T19:56:47.290Z,106.85
2018-05-26T19:59:18.405Z,111.62
2018-05-26T20:01:50.032Z,101.22
2018-05-26T20:04:21.277Z,100.90
2018-05-26T20:06:52.788Z,102.38
2018-05-26T20:09:23.945Z,112.40
2018-05-26T20:11:55.218Z,131.18
2018-05-26T20:14:26.804Z,114.18
2018-05-26T20:16:58.499Z,100.45
2018-05-26T20:19:29.738Z,111.32
2018-05-26T20:22:01.060Z,105.60
2018-05-26T20:24:33.089Z,98.20
2018-05-26T20:27:04.620Z,99.93
2018-05-26T20:29:36.032Z,106.35
2018-05-26T20:32:07.505Z,93.70
2018-05-26T20:34:38.993Z,101.47
2018-05-26T20:37:10.387Z,97.70
2018-05-26T20:39:41.568Z,97.37
2018-05-26T20:42:12.924Z,99.82
2018-05-26T20:44:44.030Z,98.30
2018-05-26T20:47:15.204Z,93.95
2018-05-26T20:49:46.338Z,99.37
2018-05-26T20:52:17.606Z,101.95
2018-05-26T20:54:49.021Z,99.07
2018-05-26T20:57:20.216Z,95.75
2018-05-26T20:59:56.284Z,101.72
2018-05-26T21:02:29.262Z,93.15
2018-05-26T21:05:00.609Z,107.63
2018-05-26T21:07:31.890Z,100.93
2018-05-26T21:10:03.183Z,96.85
2018-05-26T21:12:34.424Z,97.25
2018-05-26T21:15:05.537Z,98.70
2018-05-26T21:17:37.150Z,96.95
2018-05-26T21:20:08.341Z,103.72
2018-05-26T21:22:39.591Z,97.80
2018-05-26T21:25:10.846Z,99.35
2018-05-26T21:27:41.998Z,101.18
2018-05-26T21:30:13.301Z,103.87
2018-05-26T21:32:44.577Z,107.40
2018-05-26T21:35:15.729Z,98.43
2018-05-26T21:37:46.771Z,104.70
2018-05-26T21:40:17.900Z,95.85
2018-05-26T21:42:49.154Z,95.20
2018-05-26T21:45:20.368Z,99.70
2018-05-26T21:47:52.823Z,102.85
2018-05-26T21:50:23.995Z,99.68
2018-05-26T21:52:55.307Z,99.22
2018-05-26T21:55:26.410Z,98.50
2018-05-26T21:57:57.760Z,105.60
2018-05-26T22:00:29.957Z,100.82
2018-05-26T22:03:01.250Z,102.62
2018-05-26T22:05:32.694Z,102.20
2018-05-26T22:08:03.886Z,100.68
2018-05-26T22:10:35.054Z,97.05
2018-05-26T22:13:06.382Z,98.68
2018-05-26T22:15:37.693Z,100.97
2018-05-26T22:18:09.002Z,96.75
2018-05-26T22:20:40.322Z,102.80
2018-05-26T22:23:11.588Z,102.62
2018-05-26T22:25:43.342Z,101.68
2018-05-26T22:28:15.030Z,100.22
2018-05-26T22:30:46.278Z,99.75
2018-05-26T22:33:17.388Z,98.82
2018-05-26T22:35:48.570Z,104.90
2018-05-26T22:38:19.858Z,108.25
2018-05-26T22:40:51.469Z,98.85
2018-05-26T22:43:22.643Z,96.70
2018-05-26T22:45:53.839Z,95.32
2018-05-26T22:48:25.072Z,96.90
2018-05-26T22:50:56.362Z,94.15
2018-05-26T22:53:27.532Z,94.32
2018-05-26T22:55:58.686Z,98.75
2018-05-26T22:58:29.928Z,96.07
2018-05-26T23:01:01.248Z,98.47
2018-05-26T23:03:32.430Z,91.20
2018-05-26T23:06:03.735Z,99.97
2018-05-26T23:08:34.981Z,96.28
2018-05-26T23:11:06.309Z,100.18
2018-05-26T23:13:37.506Z,101.25
2018-05-26T23:16:08.603Z,97.22
2018-05-26T23:18:39.881Z,102.47
2018-05-26T23:21:10.969Z,99.65
2018-05-26T23:23:42.221Z,92.90
2018-05-26T23:26:14.106Z,93.50
2018-05-26T23:28:45.275Z,98.95
2018-05-26T23:31:16.531Z,91.93
2018-05-26T23:33:47.814Z,94.22
2018-05-26T23:36:19.029Z,92.05
2018-05-26T23:38:50.125Z,97.28
2018-05-26T23:41:21.469Z,93.43
2018-05-26T23:43:52.557Z,96.18
2018-05-26T23:46:23.807Z,92.55
2018-05-26T23:48:54.945Z,87.35
2018-05-26T23:51:26.438Z,91.63
2018-05-26T23:53:57.735Z,94.15
2018-05-26T23:56:28.905Z,90.82
2018-05-26T23:59:00.177Z,91.57
